Time;durP1;ratioP1;P1;durP2;ratioP2;P2;SDS_P1;SDS_P2;PMS_P1;PMS_P2;Temp;Humidity;BMP_temperature;BMP_pressure;BME280_temperature;BME280_humidity;BME280_pressure;Samples;Min_cycle;Max_cycle;Signal;HPM_P1;HPM_P2
2022/05/21 00:01:53;;;;;;;29.23;17.55;;;;;;;;;;4969392;28;20059;-78
2022/05/21 00:04:19;;;;;;;31.38;16.65;;;;;;;;;;4968933;28;20050;-78
2022/05/21 00:06:45;;;;;;;37.60;17.83;;;;;;;;;;4985843;28;20045;-72
2022/05/21 00:09:11;;;;;;;35.58;17.45;;;;;;;;;;4985739;28;20081;-73
2022/05/21 00:11:38;;;;;;;32.80;17.30;;;;;;;;;;4953645;28;20097;-73
2022/05/21 00:14:04;;;;;;;34.03;16.63;;;;;;;;;;4985484;28;20043;-72
2022/05/21 00:16:30;;;;;;;31.73;17.08;;;;;;;;;;4985755;28;20050;-72
2022/05/21 00:18:57;;;;;;;31.17;18.55;;;;;;;;;;4953625;28;20537;-72
2022/05/21 00:21:23;;;;;;;34.05;17.00;;;;;;;;;;4985872;28;20563;-72
2022/05/21 00:23:50;;;;;;;32.58;17.77;;;;;;;;;;4953903;28;20557;-73
2022/05/21 00:26:16;;;;;;;35.05;18.88;;;;;;;;;;4985202;28;20047;-73
2022/05/21 00:28:43;;;;;;;37.33;19.63;;;;;;;;;;4986208;28;20394;-72
2022/05/21 00:31:11;;;;;;;36.80;19.33;;;;;;;;;;4953226;28;20045;-73
2022/05/21 00:33:37;;;;;;;36.65;19.45;;;;;;;;;;4985931;28;20134;-73
2022/05/21 00:36:04;;;;;;;40.22;19.35;;;;;;;;;;4985329;28;20046;-71
2022/05/21 00:38:32;;;;;;;37.90;19.30;;;;;;;;;;4985409;28;20106;-72
2022/05/21 00:40:58;;;;;;;37.53;20.17;;;;;;;;;;4985369;28;20120;-72
2022/05/21 00:43:39;;;;;;;36.47;19.88;;;;;;;;;;4985611;28;20042;-72
2022/05/21 00:46:06;;;;;;;40.10;20.10;;;;;;;;;;4952822;28;20042;-73
2022/05/21 00:48:33;;;;;;;37.17;20.38;;;;;;;;;;4985470;28;20047;-72
2022/05/21 00:51:00;;;;;;;42.33;20.00;;;;;;;;;;4988765;28;20411;-71
2022/05/21 00:53:27;;;;;;;38.63;21.23;;;;;;;;;;4988867;28;20062;-77
2022/05/21 00:55:53;;;;;;;48.65;21.58;;;;;;;;;;4989081;28;20043;-78
2022/05/21 01:01:07;;;;;;;39.60;21.23;;;;;;;;;;4972021;28;20051;-78
2022/05/21 01:03:33;;;;;;;37.20;20.20;;;;;;;;;;4988967;28;20034;-78
2022/05/21 01:06:00;;;;;;;40.67;21.25;;;;;;;;;;4971861;28;20043;-78
2022/05/21 01:08:26;;;;;;;47.38;22.65;;;;;;;;;;4972468;28;20178;-78
2022/05/21 01:10:55;;;;;;;45.40;21.67;;;;;;;;;;4972851;28;20047;-78
2022/05/21 01:13:23;;;;;;;43.00;21.67;;;;;;;;;;4972760;28;20402;-72
2022/05/21 01:15:53;;;;;;;42.58;20.85;;;;;;;;;;4972823;28;20129;-73
2022/05/21 01:18:19;;;;;;;41.63;21.25;;;;;;;;;;4973550;28;20109;-73
2022/05/21 01:20:47;;;;;;;37.40;21.15;;;;;;;;;;4972823;28;20035;-73
2022/05/21 01:23:14;;;;;;;39.08;20.90;;;;;;;;;;4972519;28;20047;-72
2022/05/21 01:25:41;;;;;;;38.53;20.30;;;;;;;;;;4972387;28;20509;-73
2022/05/21 01:28:09;;;;;;;38.67;20.75;;;;;;;;;;4972350;28;20121;-73
2022/05/21 01:30:41;;;;;;;42.83;21.63;;;;;;;;;;4972403;28;20541;-73
2022/05/21 01:33:08;;;;;;;42.30;20.73;;;;;;;;;;4972051;28;20043;-73
2022/05/21 01:35:34;;;;;;;37.15;19.40;;;;;;;;;;4972257;28;20046;-73
2022/05/21 01:38:00;;;;;;;37.70;20.33;;;;;;;;;;5004329;28;20491;-73
2022/05/21 01:40:27;;;;;;;37.55;19.75;;;;;;;;;;4972387;28;20050;-73
2022/05/21 01:45:38;;;;;;;37.47;18.33;;;;;;;;;;4973267;28;20043;-72
2022/05/21 01:48:05;;;;;;;35.88;18.20;;;;;;;;;;4972260;28;20554;-73
2022/05/21 01:50:31;;;;;;;35.50;16.30;;;;;;;;;;4972077;28;20039;-72
2022/05/21 01:52:58;;;;;;;31.38;15.73;;;;;;;;;;4955473;28;20549;-73
2022/05/21 01:55:24;;;;;;;34.33;13.98;;;;;;;;;;4972293;28;20491;-73
2022/05/21 01:57:50;;;;;;;28.48;13.40;;;;;;;;;;4971779;28;20043;-72
2022/05/21 02:00:17;;;;;;;29.35;13.77;;;;;;;;;;4970697;28;20063;-72
2022/05/21 02:02:43;;;;;;;24.48;13.00;;;;;;;;;;4970127;28;20130;-72
2022/05/21 02:05:09;;;;;;;26.77;12.07;;;;;;;;;;4953837;28;20052;-73
2022/05/21 02:07:36;;;;;;;33.83;12.48;;;;;;;;;;4984009;28;20466;-72
2022/05/21 02:10:02;;;;;;;29.45;9.52;;;;;;;;;;4984306;28;20047;-74
2022/05/21 02:12:28;;;;;;;20.85;8.55;;;;;;;;;;4984345;28;20046;-72
2022/05/21 02:14:55;;;;;;;20.65;7.78;;;;;;;;;;4984781;28;20051;-72
2022/05/21 02:17:21;;;;;;;25.25;6.82;;;;;;;;;;4984772;28;20051;-74
2022/05/21 02:19:47;;;;;;;19.90;6.57;;;;;;;;;;4984362;28;20043;-74
2022/05/21 02:22:14;;;;;;;21.35;5.95;;;;;;;;;;4984764;28;20110;-74
2022/05/21 02:24:40;;;;;;;22.33;6.20;;;;;;;;;;4984148;28;20047;-74
2022/05/21 02:27:10;;;;;;;19.73;6.60;;;;;;;;;;4984092;28;20070;-73
2022/05/21 02:29:37;;;;;;;15.00;5.70;;;;;;;;;;4984167;28;20035;-75
2022/05/21 02:32:04;;;;;;;19.95;5.68;;;;;;;;;;4984043;28;20131;-79
2022/05/21 02:34:30;;;;;;;21.58;6.25;;;;;;;;;;4984015;28;20109;-81
2022/05/21 02:39:41;;;;;;;24.05;6.03;;;;;;;;;;4967687;28;20098;-79
2022/05/21 02:42:43;;;;;;;18.08;5.60;;;;;;;;;;4952448;29;20495;-78
2022/05/21 02:44:54;;;;;;;15.85;5.82;;;;;;;;;;4967557;28;20523;-79
2022/05/21 02:47:20;;;;;;;28.45;6.57;;;;;;;;;;4983245;28;20051;-77
2022/05/21 02:49:46;;;;;;;17.52;5.68;;;;;;;;;;4983827;28;20050;-79
2022/05/21 02:52:12;;;;;;;20.10;6.30;;;;;;;;;;4983188;28;20050;-76
2022/05/21 02:54:38;;;;;;;22.75;5.40;;;;;;;;;;4952196;28;20098;-74
2022/05/21 02:57:05;;;;;;;24.25;6.15;;;;;;;;;;4983502;28;20043;-76
2022/05/21 02:59:31;;;;;;;20.55;5.30;;;;;;;;;;4983320;28;20051;-74
2022/05/21 03:01:57;;;;;;;18.85;5.25;;;;;;;;;;4952320;29;20055;-73
2022/05/21 03:04:23;;;;;;;22.10;5.47;;;;;;;;;;4979933;28;20450;-74
2022/05/21 03:06:49;;;;;;;18.65;4.72;;;;;;;;;;4986796;28;20413;-73
2022/05/21 03:12:00;;;;;;;20.88;4.68;;;;;;;;;;4969916;28;20450;-74
2022/05/21 03:14:26;;;;;;;23.20;5.22;;;;;;;;;;4970306;28;20050;-72
2022/05/21 03:16:59;;;;;;;19.40;4.40;;;;;;;;;;4970167;28;20050;-73
2022/05/21 03:19:25;;;;;;;15.80;4.07;;;;;;;;;;4954254;28;20490;-73
2022/05/21 03:21:51;;;;;;;18.55;4.40;;;;;;;;;;4970474;28;20043;-74
2022/05/21 03:24:17;;;;;;;22.02;4.57;;;;;;;;;;4971115;28;20474;-74
2022/05/21 03:26:43;;;;;;;19.80;5.13;;;;;;;;;;4986076;28;20050;-74
2022/05/21 03:29:09;;;;;;;18.13;4.53;;;;;;;;;;4969800;28;20039;-75
2022/05/21 03:31:35;;;;;;;17.73;4.18;;;;;;;;;;4985964;28;20097;-76
2022/05/21 03:34:01;;;;;;;16.83;3.60;;;;;;;;;;4985946;28;20097;-75
2022/05/21 03:36:27;;;;;;;22.23;3.95;;;;;;;;;;4954243;28;20453;-73
2022/05/21 03:38:55;;;;;;;22.80;4.45;;;;;;;;;;4986083;28;20050;-74
2022/05/21 03:41:21;;;;;;;23.92;4.45;;;;;;;;;;4985971;28;20093;-75
2022/05/21 03:43:48;;;;;;;16.65;3.65;;;;;;;;;;4969679;28;20141;-77
2022/05/21 03:46:14;;;;;;;15.00;3.65;;;;;;;;;;4953589;28;20043;-75
2022/05/21 03:48:40;;;;;;;17.77;3.83;;;;;;;;;;4985961;28;20711;-75
2022/05/21 03:51:06;;;;;;;17.00;3.80;;;;;;;;;;4985650;28;20047;-75
2022/05/21 03:53:32;;;;;;;19.98;4.10;;;;;;;;;;4953686;28;20472;-73
2022/05/21 03:55:58;;;;;;;19.67;3.83;;;;;;;;;;4985353;28;20073;-74
2022/05/21 03:58:24;;;;;;;18.63;3.72;;;;;;;;;;4986175;28;20505;-78
2022/05/21 04:00:51;;;;;;;13.43;3.95;;;;;;;;;;4985644;28;20470;-76
2022/05/21 04:03:17;;;;;;;20.90;3.58;;;;;;;;;;4963236;28;20503;-75
2022/05/21 04:05:44;;;;;;;16.60;3.60;;;;;;;;;;4981495;28;20490;-80
2022/05/21 04:08:10;;;;;;;15.68;3.63;;;;;;;;;;4981737;28;20134;-79
2022/05/21 04:10:36;;;;;;;13.05;3.13;;;;;;;;;;4982422;28;20054;-80
2022/05/21 04:13:02;;;;;;;14.85;3.42;;;;;;;;;;4981902;28;20075;-80
2022/05/21 04:15:28;;;;;;;13.05;2.85;;;;;;;;;;4982186;28;20039;-79
2022/05/21 04:17:55;;;;;;;12.52;3.10;;;;;;;;;;4982589;28;20130;-82
2022/05/21 04:20:23;;;;;;;14.10;3.40;;;;;;;;;;4982626;28;20047;-81
2022/05/21 04:22:49;;;;;;;10.73;2.90;;;;;;;;;;4982345;28;20051;-80
2022/05/21 04:25:15;;;;;;;10.82;3.05;;;;;;;;;;4984428;28;20047;-78
2022/05/21 04:27:42;;;;;;;17.30;2.70;;;;;;;;;;4986547;28;20090;-81
2022/05/21 04:30:19;;;;;;;17.67;3.53;;;;;;;;;;4985637;28;20039;-83
2022/05/21 04:32:45;;;;;;;13.07;3.33;;;;;;;;;;4986346;28;20079;-82
2022/05/21 04:35:12;;;;;;;13.90;2.85;;;;;;;;;;4985888;28;20094;-82
2022/05/21 04:37:38;;;;;;;13.85;3.00;;;;;;;;;;4986432;28;20518;-81
2022/05/21 04:40:05;;;;;;;9.15;2.63;;;;;;;;;;4985791;28;20070;-82
2022/05/21 04:42:31;;;;;;;12.65;2.70;;;;;;;;;;4985868;28;20043;-81
2022/05/21 04:44:58;;;;;;;14.80;2.58;;;;;;;;;;4985773;28;20062;-80
2022/05/21 04:47:24;;;;;;;15.13;2.50;;;;;;;;;;4985992;28;20484;-82
2022/05/21 04:49:50;;;;;;;11.82;2.60;;;;;;;;;;4985993;28;20110;-82
2022/05/21 04:52:16;;;;;;;11.77;2.80;;;;;;;;;;4985679;28;20043;-81
2022/05/21 04:54:42;;;;;;;12.70;2.83;;;;;;;;;;4985839;28;20450;-81
2022/05/21 04:57:08;;;;;;;20.60;3.75;;;;;;;;;;4985841;28;20474;-80
2022/05/21 04:59:34;;;;;;;15.88;2.88;;;;;;;;;;4985836;28;20074;-79
2022/05/21 05:02:02;;;;;;;13.00;2.72;;;;;;;;;;4984942;28;20138;-79
2022/05/21 05:04:28;;;;;;;11.27;2.40;;;;;;;;;;4985517;28;20048;-73
2022/05/21 05:06:54;;;;;;;14.07;2.63;;;;;;;;;;4985724;28;20074;-71
2022/05/21 05:09:22;;;;;;;10.98;2.80;;;;;;;;;;4985452;28;20098;-74
2022/05/21 05:11:49;;;;;;;12.80;2.60;;;;;;;;;;4985661;28;20466;-74
2022/05/21 05:14:16;;;;;;;7.53;2.30;;;;;;;;;;4985397;28;20482;-73
2022/05/21 05:16:42;;;;;;;11.00;2.72;;;;;;;;;;4985797;28;20050;-73
2022/05/21 05:19:08;;;;;;;15.10;2.95;;;;;;;;;;4985021;28;20122;-73
2022/05/21 05:21:34;;;;;;;14.50;2.65;;;;;;;;;;4985638;28;20490;-75
2022/05/21 05:24:00;;;;;;;12.27;2.90;;;;;;;;;;4985076;28;20443;-74
2022/05/21 05:26:26;;;;;;;13.73;2.20;;;;;;;;;;4984909;28;20118;-73
2022/05/21 05:28:52;;;;;;;11.73;2.60;;;;;;;;;;4984820;28;20046;-75
2022/05/21 05:31:19;;;;;;;12.65;2.20;;;;;;;;;;4984764;28;20043;-75
2022/05/21 05:33:45;;;;;;;10.57;2.45;;;;;;;;;;4985141;28;20043;-73
2022/05/21 05:36:11;;;;;;;9.82;2.00;;;;;;;;;;4984523;28;20043;-75
2022/05/21 05:38:37;;;;;;;14.13;2.30;;;;;;;;;;4985258;28;20578;-74
2022/05/21 05:41:06;;;;;;;10.23;2.40;;;;;;;;;;4953076;29;20079;-73
2022/05/21 05:43:32;;;;;;;12.93;3.08;;;;;;;;;;4985159;28;20403;-73
2022/05/21 05:45:58;;;;;;;8.55;2.22;;;;;;;;;;4984977;28;20050;-72
2022/05/21 05:48:25;;;;;;;9.77;2.20;;;;;;;;;;4985092;28;20129;-72
2022/05/21 05:50:51;;;;;;;9.63;2.30;;;;;;;;;;4984740;28;20050;-73
2022/05/21 05:53:18;;;;;;;12.52;2.50;;;;;;;;;;4984202;28;20058;-72
2022/05/21 05:55:44;;;;;;;13.52;2.65;;;;;;;;;;4984901;28;20058;-74
2022/05/21 06:00:55;;;;;;;11.20;2.80;;;;;;;;;;4968302;28;20059;-72
2022/05/21 06:03:21;;;;;;;12.55;2.50;;;;;;;;;;4988792;28;20506;-78
2022/05/21 06:05:49;;;;;;;8.73;2.33;;;;;;;;;;4987715;28;20398;-74
2022/05/21 06:08:15;;;;;;;15.05;2.50;;;;;;;;;;4971732;28;20047;-73
2022/05/21 06:10:43;;;;;;;12.38;2.42;;;;;;;;;;4972991;28;20368;-74
2022/05/21 06:13:10;;;;;;;10.00;2.17;;;;;;;;;;4987304;28;20050;-75
2022/05/21 06:15:37;;;;;;;11.80;2.58;;;;;;;;;;4972525;28;20043;-73
2022/05/21 06:18:07;;;;;;;8.52;2.28;;;;;;;;;;4986975;28;20049;-72
2022/05/21 06:20:34;;;;;;;12.30;2.75;;;;;;;;;;4987456;28;20442;-76
2022/05/21 06:23:00;;;;;;;10.70;2.10;;;;;;;;;;4987459;28;20140;-75
2022/05/21 06:25:29;;;;;;;8.73;2.20;;;;;;;;;;4971442;28;20129;-76
2022/05/21 06:27:55;;;;;;;10.30;2.22;;;;;;;;;;4987402;28;20042;-73
2022/05/21 06:30:23;;;;;;;10.18;2.33;;;;;;;;;;4986689;28;20049;-73
2022/05/21 06:32:49;;;;;;;14.73;2.75;;;;;;;;;;4987127;28;20073;-72
2022/05/21 06:35:17;;;;;;;7.43;2.22;;;;;;;;;;4970629;28;20135;-74
2022/05/21 06:37:43;;;;;;;11.75;2.22;;;;;;;;;;4987222;28;20082;-73
2022/05/21 06:40:10;;;;;;;14.70;2.30;;;;;;;;;;4970698;28;20042;-73
2022/05/21 06:42:36;;;;;;;11.32;2.05;;;;;;;;;;4971022;28;20078;-73
2022/05/21 06:45:03;;;;;;;10.15;2.50;;;;;;;;;;4971106;28;20045;-73
2022/05/21 06:47:29;;;;;;;13.57;2.88;;;;;;;;;;4970961;28;20397;-73
2022/05/21 06:49:56;;;;;;;13.35;2.55;;;;;;;;;;4971086;28;20043;-73
2022/05/21 06:52:24;;;;;;;8.23;1.95;;;;;;;;;;4986738;28;20043;-73
2022/05/21 06:54:50;;;;;;;14.95;2.60;;;;;;;;;;4972232;28;20521;-74
2022/05/21 06:57:16;;;;;;;10.55;2.22;;;;;;;;;;4986271;28;20051;-73
2022/05/21 06:59:42;;;;;;;8.80;2.05;;;;;;;;;;4986768;28;20042;-74
2022/05/21 07:02:08;;;;;;;12.07;2.92;;;;;;;;;;4971110;28;20055;-72
2022/05/21 07:07:43;;;;;;;10.20;1.77;;;;;;;;;;4970099;28;20042;-73
2022/05/21 07:10:11;;;;;;;10.20;3.10;;;;;;;;;;4986286;28;20050;-75
2022/05/21 07:12:37;;;;;;;9.13;2.00;;;;;;;;;;4970206;28;20047;-74
2022/05/21 07:15:05;;;;;;;10.27;2.00;;;;;;;;;;4970151;28;20497;-73
2022/05/21 07:17:31;;;;;;;9.63;2.00;;;;;;;;;;4970572;28;20043;-74
2022/05/21 07:19:57;;;;;;;10.30;2.05;;;;;;;;;;4970262;28;20100;-79
2022/05/21 07:22:23;;;;;;;10.43;2.22;;;;;;;;;;4970027;28;20057;-79
2022/05/21 07:24:50;;;;;;;8.63;1.80;;;;;;;;;;4970001;28;20166;-77
2022/05/21 07:27:16;;;;;;;10.05;2.28;;;;;;;;;;4969345;28;20130;-79
2022/05/21 07:29:42;;;;;;;8.15;1.88;;;;;;;;;;4986383;28;20402;-77
2022/05/21 07:32:20;;;;;;;9.77;1.73;;;;;;;;;;4969495;28;20034;-76
2022/05/21 07:34:46;;;;;;;10.93;2.10;;;;;;;;;;4970108;28;20067;-79
2022/05/21 07:37:12;;;;;;;11.18;2.30;;;;;;;;;;4969413;28;20047;-78
2022/05/21 07:39:39;;;;;;;10.43;2.15;;;;;;;;;;4970001;28;20053;-76
2022/05/21 07:42:05;;;;;;;10.82;2.20;;;;;;;;;;4969743;28;20498;-79
2022/05/21 07:44:31;;;;;;;8.98;1.98;;;;;;;;;;4969825;28;20053;-79
2022/05/21 07:46:57;;;;;;;7.18;1.90;;;;;;;;;;4969593;28;20094;-78
2022/05/21 07:49:23;;;;;;;9.13;1.90;;;;;;;;;;4969324;28;20039;-78
2022/05/21 07:51:50;;;;;;;8.25;2.00;;;;;;;;;;4969760;28;20049;-79
2022/05/21 07:54:16;;;;;;;10.57;1.90;;;;;;;;;;4968977;28;20047;-75
2022/05/21 07:56:42;;;;;;;10.20;2.20;;;;;;;;;;4969545;28;20122;-73
2022/05/21 07:59:08;;;;;;;8.20;1.80;;;;;;;;;;4968533;28;20050;-77
2022/05/21 08:01:34;;;;;;;7.82;1.70;;;;;;;;;;4970601;28;20047;-74
2022/05/21 08:04:00;;;;;;;8.40;2.00;;;;;;;;;;4969892;28;20090;-77
2022/05/21 08:06:26;;;;;;;9.98;2.00;;;;;;;;;;4985150;28;20097;-73
2022/05/21 08:08:54;;;;;;;8.93;1.83;;;;;;;;;;4985673;28;20043;-74
2022/05/21 08:11:21;;;;;;;9.07;2.00;;;;;;;;;;4952844;28;20104;-75
2022/05/21 08:13:47;;;;;;;7.53;1.60;;;;;;;;;;4985834;28;20049;-73
2022/05/21 08:16:14;;;;;;;8.65;1.98;;;;;;;;;;4984865;28;20038;-75
2022/05/21 08:18:40;;;;;;;9.45;2.20;;;;;;;;;;4953411;28;20042;-73
2022/05/21 08:21:07;;;;;;;6.55;1.60;;;;;;;;;;4984954;28;20046;-72
2022/05/21 08:29:03;;;;;;;11.40;2.67;;;;;;;;;;4969429;28;20051;-75
2022/05/21 08:31:29;;;;;;;9.45;1.83;;;;;;;;;;4953229;28;20451;-76
2022/05/21 08:33:55;;;;;;;12.90;2.25;;;;;;;;;;4970443;28;20531;-72
2022/05/21 08:36:21;;;;;;;7.82;2.28;;;;;;;;;;4984814;28;20051;-73
2022/05/21 08:38:47;;;;;;;10.38;2.25;;;;;;;;;;4985791;28;20614;-72
2022/05/21 08:41:16;;;;;;;9.10;2.05;;;;;;;;;;4984759;28;20075;-72
2022/05/21 08:43:52;;;;;;;9.70;2.25;;;;;;;;;;4985655;28;20494;-75
2022/05/21 08:46:37;;;;;;;9.27;2.00;;;;;;;;;;4984198;28;20576;-74
2022/05/21 08:49:03;;;;;;;11.20;2.53;;;;;;;;;;4984965;28;20047;-74
2022/05/21 08:51:32;;;;;;;9.35;2.20;;;;;;;;;;4952965;28;20120;-72
2022/05/21 08:53:59;;;;;;;8.98;2.20;;;;;;;;;;4985899;28;20085;-75
2022/05/21 08:56:25;;;;;;;9.35;2.63;;;;;;;;;;4936944;28;20491;-75
2022/05/21 08:59:01;;;;;;;8.68;1.98;;;;;;;;;;4985108;28;20047;-73
2022/05/21 09:01:27;;;;;;;7.10;1.80;;;;;;;;;;4984607;28;20417;-72
2022/05/21 09:03:54;;;;;;;8.23;1.63;;;;;;;;;;4985359;28;20490;-75
2022/05/21 09:06:20;;;;;;;10.93;2.17;;;;;;;;;;4984546;28;20073;-72
2022/05/21 09:08:59;;;;;;;8.68;2.08;;;;;;;;;;4968879;28;20049;-72
2022/05/21 09:11:28;;;;;;;10.27;2.17;;;;;;;;;;4971096;28;20043;-71
2022/05/21 09:14:04;;;;;;;10.75;2.40;;;;;;;;;;4972675;28;20394;-71
2022/05/21 09:16:54;;;;;;;8.52;2.30;;;;;;;;;;4972452;28;20407;-71
2022/05/21 09:19:21;;;;;;;11.18;2.50;;;;;;;;;;4973061;28;20401;-72
2022/05/21 09:21:47;;;;;;;9.05;2.20;;;;;;;;;;4973378;28;20486;-73
2022/05/21 09:24:32;;;;;;;8.55;1.90;;;;;;;;;;4973285;28;20049;-72
2022/05/21 09:26:58;;;;;;;10.40;2.30;;;;;;;;;;4972569;28;20137;-72
2022/05/21 09:29:28;;;;;;;10.07;1.70;;;;;;;;;;4972196;28;20517;-74
2022/05/21 09:31:57;;;;;;;7.88;1.90;;;;;;;;;;4972485;28;20085;-73
2022/05/21 09:34:28;;;;;;;10.38;2.17;;;;;;;;;;4955767;28;20422;-72
2022/05/21 09:36:55;;;;;;;7.28;1.80;;;;;;;;;;4973339;28;20038;-72
2022/05/21 09:39:32;;;;;;;11.98;1.92;;;;;;;;;;4971592;28;20070;-73
2022/05/21 09:45:23;;;;;;;8.00;1.60;;;;;;;;;;4972121;28;20046;-73
2022/05/21 09:47:51;;;;;;;10.20;2.28;;;;;;;;;;4971937;28;20039;-72
2022/05/21 09:50:25;;;;;;;7.78;1.80;;;;;;;;;;4971720;28;20513;-74
2022/05/21 09:52:51;;;;;;;8.60;1.77;;;;;;;;;;4971671;28;20050;-72
2022/05/21 09:55:26;;;;;;;8.98;1.88;;;;;;;;;;4971467;28;20545;-73
2022/05/21 09:57:54;;;;;;;14.20;1.92;;;;;;;;;;4987976;28;20050;-72
2022/05/21 10:00:29;;;;;;;5.90;1.63;;;;;;;;;;4987702;28;20101;-72
2022/05/21 10:02:59;;;;;;;9.57;1.73;;;;;;;;;;4987841;28;20063;-75
2022/05/21 10:05:29;;;;;;;9.50;1.88;;;;;;;;;;4987097;28;20302;-76
2022/05/21 10:10:59;;;;;;;12.20;1.95;;;;;;;;;;4971908;28;20042;-72
2022/05/21 10:13:32;;;;;;;9.98;1.70;;;;;;;;;;4987315;28;20125;-73
2022/05/21 10:16:17;;;;;;;11.55;2.00;;;;;;;;;;4988032;28;20402;-73
2022/05/21 10:19:02;;;;;;;6.75;1.45;;;;;;;;;;4987667;28;20438;-74
2022/05/21 10:21:31;;;;;;;9.90;2.33;;;;;;;;;;4986742;28;20105;-72
2022/05/21 10:24:13;;;;;;;10.00;1.80;;;;;;;;;;4987235;28;20134;-73
2022/05/21 10:26:43;;;;;;;8.48;1.75;;;;;;;;;;4987490;28;20096;-72
2022/05/21 10:29:25;;;;;;;7.35;1.77;;;;;;;;;;4987212;28;20093;-75
2022/05/21 10:31:57;;;;;;;8.98;2.13;;;;;;;;;;4987562;28;20050;-73
2022/05/21 10:34:23;;;;;;;6.72;1.95;;;;;;;;;;4986848;28;20409;-72
2022/05/21 10:37:08;;;;;;;10.32;2.40;;;;;;;;;;4987388;28;20045;-73
2022/05/21 10:39:59;;;;;;;9.70;2.00;;;;;;;;;;4987275;28;20039;-75
2022/05/21 10:42:31;;;;;;;9.55;2.13;;;;;;;;;;4987354;28;20486;-72
2022/05/21 10:45:11;;;;;;;10.90;2.10;;;;;;;;;;4986843;28;20105;-72
2022/05/21 10:47:48;;;;;;;7.15;2.00;;;;;;;;;;4987044;28;20054;-73
2022/05/21 10:50:41;;;;;;;9.52;2.15;;;;;;;;;;4986670;28;20053;-73
2022/05/21 10:53:15;;;;;;;12.60;2.45;;;;;;;;;;4968122;28;20507;-72
2022/05/21 10:55:45;;;;;;;8.05;1.98;;;;;;;;;;4987088;28;20058;-75
2022/05/21 10:58:22;;;;;;;6.32;1.95;;;;;;;;;;4986513;28;20054;-72
2022/05/21 11:01:07;;;;;;;10.88;2.88;;;;;;;;;;4986745;28;20055;-73
2022/05/21 11:04:05;;;;;;;12.60;2.85;;;;;;;;;;4986935;28;20054;-73
2022/05/21 11:06:35;;;;;;;10.10;2.15;;;;;;;;;;4923142;28;20515;-73
2022/05/21 11:09:19;;;;;;;8.43;2.30;;;;;;;;;;4970587;28;20046;-74
2022/05/21 11:12:01;;;;;;;11.82;2.53;;;;;;;;;;4970488;28;20050;-73
2022/05/21 11:14:37;;;;;;;9.77;2.58;;;;;;;;;;4971184;28;20047;-73
2022/05/21 11:17:09;;;;;;;12.00;2.47;;;;;;;;;;4986821;28;20130;-73
2022/05/21 11:19:38;;;;;;;10.50;2.60;;;;;;;;;;4970278;28;20050;-74
2022/05/21 11:22:09;;;;;;;9.65;2.20;;;;;;;;;;4970884;28;20130;-73
2022/05/21 11:24:38;;;;;;;11.15;2.42;;;;;;;;;;4969939;28;20146;-72
2022/05/21 11:27:13;;;;;;;9.45;2.10;;;;;;;;;;4970250;28;20050;-73
2022/05/21 11:29:54;;;;;;;9.65;1.90;;;;;;;;;;4970415;28;20081;-72
2022/05/21 11:37:55;;;;;;;11.25;2.17;;;;;;;;;;4970380;28;20046;-75
2022/05/21 11:40:40;;;;;;;8.48;2.00;;;;;;;;;;4969748;28;20054;-72
2022/05/21 11:43:06;;;;;;;9.77;2.10;;;;;;;;;;4969897;28;20491;-73
2022/05/21 11:45:32;;;;;;;10.82;2.00;;;;;;;;;;4970049;28;20043;-72
2022/05/21 11:48:22;;;;;;;14.27;3.05;;;;;;;;;;4970056;28;20042;-72
2022/05/21 11:51:08;;;;;;;8.23;1.85;;;;;;;;;;4985997;28;20133;-74
2022/05/21 11:53:37;;;;;;;11.02;2.30;;;;;;;;;;4970041;28;20122;-73
2022/05/21 11:56:10;;;;;;;10.00;1.90;;;;;;;;;;4969801;28;20046;-72
2022/05/21 11:59:03;;;;;;;11.65;2.13;;;;;;;;;;4985882;28;20043;-73
2022/05/21 12:01:41;;;;;;;9.38;1.95;;;;;;;;;;4947127;28;20063;-73
2022/05/21 12:04:08;;;;;;;7.07;1.95;;;;;;;;;;4968928;28;20057;-74
2022/05/21 12:06:42;;;;;;;14.18;2.00;;;;;;;;;;4969253;28;20047;-72
2022/05/21 12:09:23;;;;;;;11.70;2.10;;;;;;;;;;4969501;28;20047;-72
2022/05/21 12:11:50;;;;;;;7.93;1.60;;;;;;;;;;4985870;28;20121;-74
2022/05/21 12:14:19;;;;;;;9.57;1.90;;;;;;;;;;4969301;28;20046;-73
2022/05/21 12:16:53;;;;;;;12.07;2.15;;;;;;;;;;4985881;28;20561;-73
2022/05/21 12:19:58;;;;;;;9.13;1.90;;;;;;;;;;4970444;28;20051;-76
2022/05/21 12:22:44;;;;;;;8.13;1.92;;;;;;;;;;4913656;29;20047;-75
2022/05/21 12:25:13;;;;;;;9.40;1.85;;;;;;;;;;4897884;29;20079;-73
2022/05/21 12:27:55;;;;;;;11.30;2.35;;;;;;;;;;4948559;28;20596;-73
2022/05/21 12:30:27;;;;;;;6.93;2.05;;;;;;;;;;4969134;28;20391;-72
2022/05/21 12:32:53;;;;;;;11.50;2.08;;;;;;;;;;4969448;28;20042;-75
2022/05/21 12:35:30;;;;;;;8.20;1.90;;;;;;;;;;4970578;28;20101;-72
2022/05/21 12:38:02;;;;;;;7.93;1.88;;;;;;;;;;4971085;28;20090;-73
2022/05/21 12:40:51;;;;;;;8.65;1.85;;;;;;;;;;4970365;28;20050;-74
2022/05/21 12:43:18;;;;;;;8.25;1.80;;;;;;;;;;4942446;28;20050;-72
2022/05/21 12:45:49;;;;;;;6.30;1.20;;;;;;;;;;4970874;28;20550;-73
2022/05/21 12:48:20;;;;;;;10.20;1.50;;;;;;;;;;4973191;28;20122;-73
2022/05/21 12:50:48;;;;;;;9.57;1.70;;;;;;;;;;4973111;28;20042;-79
2022/05/21 12:53:17;;;;;;;6.97;1.48;;;;;;;;;;4972359;28;20050;-77
2022/05/21 12:55:43;;;;;;;9.95;1.52;;;;;;;;;;4972817;28;20043;-77
2022/05/21 12:58:09;;;;;;;6.95;1.48;;;;;;;;;;4956481;28;20046;-75
2022/05/21 13:00:37;;;;;;;5.53;1.25;;;;;;;;;;4972446;28;20047;-74
2022/05/21 13:03:07;;;;;;;6.30;1.60;;;;;;;;;;4972733;28;20108;-78
2022/05/21 13:05:37;;;;;;;9.00;1.65;;;;;;;;;;4956815;28;20043;-78
2022/05/21 13:08:05;;;;;;;7.20;1.30;;;;;;;;;;4988815;28;20081;-78
2022/05/21 13:10:36;;;;;;;7.82;1.60;;;;;;;;;;4972374;28;20057;-75
2022/05/21 13:13:06;;;;;;;5.75;1.67;;;;;;;;;;4973774;28;20038;-77
2022/05/21 13:15:39;;;;;;;6.18;1.45;;;;;;;;;;4989014;28;20097;-78
2022/05/21 13:18:28;;;;;;;4.95;1.33;;;;;;;;;;4956758;28;20096;-77
2022/05/21 13:20:54;;;;;;;7.15;1.27;;;;;;;;;;4968090;28;20652;-77
2022/05/21 13:23:28;;;;;;;6.97;1.50;;;;;;;;;;4988686;28;20131;-76
2022/05/21 13:25:55;;;;;;;7.97;1.35;;;;;;;;;;4988329;28;20502;-75
2022/05/21 13:28:23;;;;;;;6.22;1.42;;;;;;;;;;4988313;28;20063;-78
2022/05/21 13:30:51;;;;;;;6.43;1.60;;;;;;;;;;4988288;28;20043;-77
2022/05/21 13:33:34;;;;;;;7.13;1.80;;;;;;;;;;4955836;28;20047;-76
2022/05/21 13:36:03;;;;;;;8.40;1.48;;;;;;;;;;4955878;28;20054;-77
2022/05/21 13:38:32;;;;;;;9.00;1.70;;;;;;;;;;4987730;28;20054;-75
2022/05/21 13:40:59;;;;;;;6.25;1.48;;;;;;;;;;4955838;28;20046;-78
2022/05/21 13:43:29;;;;;;;6.10;1.58;;;;;;;;;;4988288;28;20402;-77
2022/05/21 13:45:57;;;;;;;4.82;1.42;;;;;;;;;;4988111;28;20058;-82
2022/05/21 13:48:33;;;;;;;8.05;1.83;;;;;;;;;;4973345;28;20479;-77
2022/05/21 13:50:59;;;;;;;7.90;1.80;;;;;;;;;;4987981;28;20045;-76
2022/05/21 13:53:26;;;;;;;9.85;2.85;;;;;;;;;;4987682;28;20058;-78
2022/05/21 13:55:57;;;;;;;7.03;1.85;;;;;;;;;;4939660;28;20047;-76
2022/05/21 13:58:41;;;;;;;7.25;1.60;;;;;;;;;;4987113;28;20122;-77
2022/05/21 14:01:20;;;;;;;4.68;1.20;;;;;;;;;;4987871;28;20425;-76
2022/05/21 14:03:47;;;;;;;7.80;1.80;;;;;;;;;;4987702;28;20114;-76
2022/05/21 14:06:21;;;;;;;8.52;1.80;;;;;;;;;;4987573;28;20059;-80
2022/05/21 14:08:54;;;;;;;9.88;1.75;;;;;;;;;;4971312;28;20101;-79
2022/05/21 14:11:20;;;;;;;5.28;1.27;;;;;;;;;;4971136;28;20082;-80
2022/05/21 14:13:54;;;;;;;5.80;1.65;;;;;;;;;;4987929;28;20458;-79
2022/05/21 14:16:27;;;;;;;5.22;1.38;;;;;;;;;;4971447;28;20458;-79
2022/05/21 14:19:19;;;;;;;5.82;1.48;;;;;;;;;;4988026;28;20050;-78
2022/05/21 14:22:05;;;;;;;9.10;2.38;;;;;;;;;;4968632;28;20054;-77
2022/05/21 14:24:36;;;;;;;7.70;1.50;;;;;;;;;;4970917;28;20046;-77
2022/05/21 14:27:04;;;;;;;7.15;1.75;;;;;;;;;;4971293;28;20225;-79
2022/05/21 14:29:31;;;;;;;6.80;1.30;;;;;;;;;;4970897;28;20495;-75
2022/05/21 14:32:10;;;;;;;6.65;1.50;;;;;;;;;;4972483;28;20043;-77
2022/05/21 14:34:36;;;;;;;6.70;1.42;;;;;;;;;;4971327;28;20130;-78
2022/05/21 14:37:02;;;;;;;6.20;1.40;;;;;;;;;;4971065;28;20491;-79
2022/05/21 14:39:29;;;;;;;5.43;1.50;;;;;;;;;;4971066;28;20478;-77
2022/05/21 14:41:59;;;;;;;4.68;1.10;;;;;;;;;;4971245;28;20043;-79
2022/05/21 14:44:26;;;;;;;4.07;1.05;;;;;;;;;;4970663;28;20044;-79
2022/05/21 14:49:38;;;;;;;5.93;1.33;;;;;;;;;;4971104;28;20498;-77
2022/05/21 14:54:58;;;;;;;11.05;3.08;;;;;;;;;;4971920;28;20104;-78
2022/05/21 14:57:24;;;;;;;10.50;2.50;;;;;;;;;;4970238;28;20554;-75
2022/05/21 14:59:50;;;;;;;13.65;2.58;;;;;;;;;;4986616;28;20117;-77
2022/05/21 15:02:17;;;;;;;8.52;2.08;;;;;;;;;;4969892;28;20558;-77
2022/05/21 15:04:43;;;;;;;7.38;2.10;;;;;;;;;;4971705;28;20069;-77
2022/05/21 15:07:27;;;;;;;17.35;3.17;;;;;;;;;;4971284;28;20082;-77
2022/05/21 15:09:56;;;;;;;8.82;2.15;;;;;;;;;;4986165;28;20494;-79
2022/05/21 15:12:22;;;;;;;9.90;2.60;;;;;;;;;;4953991;28;20038;-78
2022/05/21 15:14:48;;;;;;;9.38;2.35;;;;;;;;;;4986643;28;20399;-78
2022/05/21 15:17:14;;;;;;;9.27;2.75;;;;;;;;;;4985412;28;20038;-79
2022/05/21 15:19:40;;;;;;;9.05;2.15;;;;;;;;;;4970068;28;20483;-78
2022/05/21 15:22:12;;;;;;;10.60;2.67;;;;;;;;;;4985746;28;20050;-79
2022/05/21 15:24:38;;;;;;;12.75;3.05;;;;;;;;;;4953583;28;20043;-79
2022/05/21 15:27:05;;;;;;;10.57;2.60;;;;;;;;;;4969876;28;20394;-79